Time;durP1;ratioP1;P1;durP2;ratioP2;P2;SDS_P1;SDS_P2;PMS_P1;PMS_P2;Temp;Humidity;BMP_temperature;BMP_pressure;BME280_temperature;BME280_humidity;BME280_pressure;Samples;Min_cycle;Max_cycle;Signal;HPM_P1;HPM_P2
2023/07/20 00:01:14;;;;;;;1.10;1.00;;;20.70;59.00;;;;;;5135791;27;20169;-85
2023/07/20 00:03:44;;;;;;;0.98;0.90;;;20.70;59.00;;;;;;5136002;27;20168;-84
2023/07/20 00:06:10;;;;;;;0.98;0.82;;;20.70;59.00;;;;;;5101151;27;20179;-87
2023/07/20 00:08:36;;;;;;;0.98;0.88;;;20.70;59.00;;;;;;5118423;27;20254;-85
2023/07/20 00:11:02;;;;;;;1.20;1.00;;;20.70;59.00;;;;;;5136020;27;20183;-85
2023/07/20 00:13:28;;;;;;;1.00;0.90;;;20.70;59.00;;;;;;5135502;27;20600;-81
2023/07/20 00:15:54;;;;;;;1.10;1.00;;;20.70;59.00;;;;;;5136016;27;20529;-83
2023/07/20 00:18:21;;;;;;;1.08;0.98;;;20.70;59.00;;;;;;5118578;27;20207;-84
2023/07/20 00:20:47;;;;;;;0.85;0.80;;;20.70;59.10;;;;;;5136763;27;20147;-84
2023/07/20 00:23:14;;;;;;;0.90;0.80;;;20.70;59.10;;;;;;5136614;27;20166;-85
2023/07/20 00:25:39;;;;;;;0.80;0.80;;;20.70;59.10;;;;;;5136229;27;20152;-85
2023/07/20 00:28:05;;;;;;;0.80;0.80;;;20.70;59.10;;;;;;5117391;27;20678;-82
2023/07/20 00:30:31;;;;;;;0.90;0.90;;;20.60;59.00;;;;;;5136821;27;20645;-83
2023/07/20 00:32:57;;;;;;;1.15;1.00;;;20.70;59.00;;;;;;5135160;27;20166;-85
2023/07/20 00:35:23;;;;;;;1.17;1.08;;;20.70;59.00;;;;;;5136264;27;20183;-84
2023/07/20 00:37:49;;;;;;;1.20;0.90;;;20.70;59.10;;;;;;5136526;27;20152;-82
2023/07/20 00:40:17;;;;;;;0.90;0.90;;;20.70;59.10;;;;;;5135342;27;20150;-85
2023/07/20 00:42:43;;;;;;;0.90;0.90;;;20.70;59.10;;;;;;5135322;27;20193;-82
2023/07/20 00:45:09;;;;;;;1.00;0.90;;;20.70;59.10;;;;;;5136340;27;20163;-86
2023/07/20 00:47:35;;;;;;;0.80;0.70;;;20.70;59.10;;;;;;5118073;27;20179;-82
2023/07/20 00:50:02;;;;;;;1.70;1.17;;;20.70;59.10;;;;;;5117784;27;20160;-85
2023/07/20 00:52:28;;;;;;;1.10;1.00;;;20.70;59.10;;;;;;5134794;27;20218;-85
2023/07/20 00:54:56;;;;;;;1.10;1.00;;;20.70;59.10;;;;;;5136036;27;20187;-85
2023/07/20 00:57:22;;;;;;;1.05;0.95;;;20.70;59.10;;;;;;5136205;27;20156;-83
2023/07/20 00:59:48;;;;;;;0.95;0.93;;;20.70;59.10;;;;;;5134678;27;20156;-84
2023/07/20 01:02:14;;;;;;;0.85;0.82;;;20.70;59.10;;;;;;5134572;27;20160;-84
2023/07/20 01:04:40;;;;;;;1.08;1.00;;;20.70;59.10;;;;;;5134604;27;20198;-81
2023/07/20 01:07:32;;;;;;;0.90;0.90;;;20.70;59.10;;;;;;5134565;27;20677;-87
2023/07/20 01:10:13;;;;;;;0.80;0.80;;;20.70;59.10;;;;;;5136004;27;20167;-85
2023/07/20 01:12:46;;;;;;;0.90;0.90;;;20.70;59.10;;;;;;5135722;27;20151;-84
2023/07/20 01:15:12;;;;;;;1.77;0.98;;;20.70;59.10;;;;;;5134614;27;20194;-85
2023/07/20 01:17:38;;;;;;;1.10;1.00;;;20.70;59.10;;;;;;5134236;27;20156;-83
2023/07/20 01:20:07;;;;;;;0.90;0.80;;;20.70;59.20;;;;;;5134382;27;20156;-85
2023/07/20 01:23:13;;;;;;;0.88;0.88;;;20.70;59.10;;;;;;5135378;27;20152;-83
2023/07/20 01:26:07;;;;;;;1.08;0.98;;;20.70;59.10;;;;;;5134461;27;20178;-85
2023/07/20 01:29:11;;;;;;;0.82;0.82;;;20.70;59.10;;;;;;5134743;27;20155;-82
2023/07/20 01:31:37;;;;;;;1.20;1.10;;;20.70;59.10;;;;;;5135426;27;20183;-86
2023/07/20 01:34:03;;;;;;;0.80;0.80;;;20.70;59.10;;;;;;5117217;27;20589;-84
2023/07/20 01:36:32;;;;;;;1.05;0.95;;;20.70;59.20;;;;;;5116913;27;20163;-85
2023/07/20 01:38:58;;;;;;;0.80;0.80;;;20.70;59.20;;;;;;5134069;27;20159;-85
2023/07/20 01:41:24;;;;;;;0.90;0.90;;;20.70;59.20;;;;;;5135168;27;20155;-84
2023/07/20 01:43:50;;;;;;;0.95;0.93;;;20.70;59.10;;;;;;5133864;27;20176;-85
2023/07/20 01:46:16;;;;;;;0.98;0.90;;;20.70;59.20;;;;;;5133788;27;20148;-82
2023/07/20 01:48:42;;;;;;;0.93;0.90;;;20.70;59.20;;;;;;5133850;27;20212;-82
2023/07/20 01:51:08;;;;;;;1.13;1.02;;;20.70;59.10;;;;;;5141575;27;20291;-87
2023/07/20 01:53:34;;;;;;;0.90;0.80;;;20.70;59.10;;;;;;5155712;27;20192;-85
2023/07/20 01:55:59;;;;;;;0.80;0.80;;;20.60;59.10;;;;;;5155919;27;20158;-84
2023/07/20 01:58:25;;;;;;;2.33;1.20;;;20.70;59.20;;;;;;5136947;27;20169;-86
2023/07/20 02:00:51;;;;;;;1.10;1.00;;;20.60;59.20;;;;;;5155431;27;20175;-85
2023/07/20 02:03:17;;;;;;;1.27;1.10;;;20.60;59.20;;;;;;5155686;27;20154;-84
2023/07/20 02:05:43;;;;;;;0.77;0.77;;;20.60;59.20;;;;;;5136904;27;20258;-84
2023/07/20 02:08:09;;;;;;;0.77;0.77;;;20.60;59.20;;;;;;5119841;27;20172;-87
2023/07/20 02:10:35;;;;;;;1.30;1.20;;;20.60;59.20;;;;;;5136898;27;20155;-85
2023/07/20 02:13:01;;;;;;;0.93;0.90;;;20.70;59.30;;;;;;5120062;27;20260;-88
2023/07/20 02:15:28;;;;;;;1.08;0.93;;;20.70;59.20;;;;;;5119499;27;20680;-83
2023/07/20 02:17:54;;;;;;;1.00;0.90;;;20.70;59.20;;;;;;5136687;27;20166;-84
2023/07/20 02:20:20;;;;;;;1.10;1.00;;;20.70;59.20;;;;;;5136758;27;20155;-84
2023/07/20 02:22:46;;;;;;;1.25;1.00;;;20.70;59.20;;;;;;5136728;27;20161;-85
2023/07/20 02:25:12;;;;;;;1.10;1.00;;;20.60;59.20;;;;;;5136553;27;20166;-85
2023/07/20 02:27:38;;;;;;;0.95;0.95;;;20.70;59.20;;;;;;5119781;27;20169;-87
2023/07/20 02:30:05;;;;;;;0.80;0.80;;;20.60;59.20;;;;;;5155097;27;20157;-85
2023/07/20 02:32:32;;;;;;;0.68;0.68;;;20.70;59.30;;;;;;5136660;27;20150;-84
2023/07/20 02:34:58;;;;;;;1.10;0.95;;;20.70;59.30;;;;;;5119458;27;20204;-85
2023/07/20 02:37:24;;;;;;;1.30;1.20;;;20.60;59.20;;;;;;5155013;27;20155;-83
2023/07/20 02:39:50;;;;;;;0.82;0.82;;;20.60;59.30;;;;;;5155079;27;20157;-86
2023/07/20 02:42:16;;;;;;;1.40;1.02;;;20.70;59.20;;;;;;5136567;27;20177;-85
2023/07/20 02:44:42;;;;;;;1.00;0.93;;;20.70;59.30;;;;;;5154926;27;20605;-82
2023/07/20 02:47:08;;;;;;;1.00;0.90;;;20.60;59.20;;;;;;5136471;27;20164;-87
2023/07/20 02:49:35;;;;;;;1.10;1.00;;;20.60;59.30;;;;;;5137073;27;20197;-85
2023/07/20 02:52:01;;;;;;;1.00;0.90;;;20.70;59.30;;;;;;5119758;27;20226;-85
2023/07/20 02:54:30;;;;;;;1.17;1.00;;;20.60;59.20;;;;;;5120371;27;20195;-85
2023/07/20 02:56:56;;;;;;;1.17;1.00;;;20.60;59.30;;;;;;5138316;27;20155;-86
2023/07/20 02:59:22;;;;;;;0.82;0.80;;;20.60;59.30;;;;;;5137011;27;20200;-83
2023/07/20 03:01:48;;;;;;;1.27;0.90;;;20.60;59.30;;;;;;5119802;27;20160;-87
2023/07/20 03:04:14;;;;;;;1.10;1.00;;;20.60;59.30;;;;;;5138119;27;20159;-85
2023/07/20 03:06:40;;;;;;;1.00;0.90;;;20.60;59.30;;;;;;5137084;27;20625;-85
2023/07/20 03:09:06;;;;;;;1.20;1.10;;;20.60;59.30;;;;;;5138075;27;20140;-85
2023/07/20 03:11:33;;;;;;;0.90;0.90;;;20.60;59.30;;;;;;5136877;27;20154;-83
2023/07/20 03:13:59;;;;;;;1.08;0.90;;;20.70;59.30;;;;;;5119691;27;20632;-84
2023/07/20 03:16:26;;;;;;;1.02;1.00;;;20.60;59.30;;;;;;5136740;27;20636;-84
2023/07/20 03:18:52;;;;;;;1.00;0.90;;;20.60;59.30;;;;;;5136693;27;20187;-85
2023/07/20 03:21:18;;;;;;;0.90;0.90;;;20.60;59.30;;;;;;5136733;27;20179;-83
2023/07/20 03:23:44;;;;;;;0.70;0.70;;;20.60;59.30;;;;;;5136964;27;20163;-86
2023/07/20 03:26:10;;;;;;;1.13;1.02;;;20.60;59.30;;;;;;5137975;27;20190;-83
2023/07/20 03:28:37;;;;;;;1.02;0.93;;;20.70;59.40;;;;;;5137998;27;20151;-85
2023/07/20 03:31:03;;;;;;;1.20;1.00;;;20.60;59.30;;;;;;5136738;27;20148;-86
2023/07/20 03:33:30;;;;;;;1.15;1.05;;;20.70;59.30;;;;;;5136662;27;20284;-85
2023/07/20 03:35:56;;;;;;;1.10;1.00;;;20.70;59.30;;;;;;5136431;27;20165;-84
2023/07/20 03:38:22;;;;;;;0.95;0.90;;;20.70;59.30;;;;;;5136246;27;20160;-83
2023/07/20 03:40:52;;;;;;;1.27;1.15;;;20.70;59.30;;;;;;5119682;27;20171;-86
2023/07/20 03:43:18;;;;;;;0.80;0.80;;;20.70;59.20;;;;;;5136287;27;20159;-83
2023/07/20 03:45:45;;;;;;;0.90;0.90;;;20.70;59.10;;;;;;5136495;27;20220;-83
2023/07/20 03:48:11;;;;;;;0.90;0.90;;;20.70;59.00;;;;;;5119099;27;20195;-83
2023/07/20 03:50:37;;;;;;;1.02;0.98;;;20.80;59.10;;;;;;5121200;27;20565;-82
2023/07/20 03:53:03;;;;;;;1.08;0.90;;;20.80;59.00;;;;;;5139721;27;20159;-84
2023/07/20 03:55:30;;;;;;;1.25;1.00;;;20.80;58.90;;;;;;5158109;27;20197;-84
2023/07/20 03:57:55;;;;;;;1.00;0.90;;;20.80;58.90;;;;;;5122229;27;20249;-85
2023/07/20 04:00:21;;;;;;;1.00;0.90;;;20.90;58.90;;;;;;5139381;27;20255;-84
2023/07/20 04:02:47;;;;;;;1.13;0.93;;;20.80;58.80;;;;;;5157710;27;20208;-82
2023/07/20 04:05:13;;;;;;;0.77;0.77;;;20.80;58.90;;;;;;5121968;27;20418;-87
2023/07/20 04:07:39;;;;;;;1.17;0.90;;;20.90;58.80;;;;;;5122821;27;20257;-85
2023/07/20 04:10:05;;;;;;;1.33;1.10;;;20.90;58.70;;;;;;5139119;27;20222;-82
2023/07/20 04:12:31;;;;;;;0.80;0.80;;;20.90;58.80;;;;;;5121851;27;20609;-83
2023/07/20 04:14:57;;;;;;;1.25;0.80;;;20.90;58.70;;;;;;5121892;27;20194;-86
2023/07/20 04:17:23;;;;;;;0.75;0.75;;;20.90;58.60;;;;;;5138972;27;20791;-85
2023/07/20 04:19:49;;;;;;;0.77;0.77;;;20.90;58.60;;;;;;5157560;27;20147;-84
2023/07/20 04:22:15;;;;;;;0.70;0.70;;;20.90;58.50;;;;;;5138956;27;20163;-83
2023/07/20 04:24:42;;;;;;;0.80;0.80;;;21.00;58.50;;;;;;5122001;27;20170;-86
2023/07/20 04:27:08;;;;;;;1.15;0.90;;;21.00;58.50;;;;;;5157554;27;20670;-87
2023/07/20 04:29:34;;;;;;;0.93;0.93;;;21.00;58.50;;;;;;5138793;27;20162;-84
2023/07/20 04:32:00;;;;;;;1.00;0.82;;;21.10;58.40;;;;;;5138796;27;20158;-86
2023/07/20 04:34:26;;;;;;;1.00;0.82;;;21.10;58.40;;;;;;5138476;27;20675;-82
2023/07/20 04:36:53;;;;;;;0.80;0.80;;;21.00;58.30;;;;;;5121391;27;20173;-84
2023/07/20 04:39:19;;;;;;;0.82;0.80;;;21.10;58.40;;;;;;5138965;27;20508;-83
2023/07/20 04:41:45;;;;;;;0.77;0.75;;;21.10;58.20;;;;;;5138790;27;20230;-83
2023/07/20 04:44:10;;;;;;;1.00;0.90;;;21.10;58.20;;;;;;5138501;27;20640;-85
2023/07/20 04:46:36;;;;;;;1.02;0.93;;;21.10;58.20;;;;;;5138368;27;20155;-81
2023/07/20 04:49:02;;;;;;;0.85;0.85;;;21.20;58.20;;;;;;5138357;27;20609;-82
2023/07/20 04:51:30;;;;;;;0.93;0.82;;;21.10;58.20;;;;;;5156656;27;20218;-81
2023/07/20 04:53:56;;;;;;;1.00;0.90;;;21.30;58.00;;;;;;5104517;27;20232;-85
2023/07/20 04:56:23;;;;;;;0.93;0.90;;;21.20;58.00;;;;;;5121061;27;20170;-85
2023/07/20 04:58:49;;;;;;;0.93;0.90;;;21.20;57.90;;;;;;5156969;27;20159;-86
2023/07/20 05:01:15;;;;;;;0.70;0.70;;;21.20;57.90;;;;;;5156633;27;20182;-83
2023/07/20 05:03:41;;;;;;;0.80;0.70;;;21.20;58.00;;;;;;5156871;27;20151;-86
2023/07/20 05:06:07;;;;;;;0.90;0.80;;;21.20;57.80;;;;;;5156474;27;20143;-87
2023/07/20 05:08:33;;;;;;;1.10;1.00;;;21.20;57.80;;;;;;5120864;27;20157;-85
2023/07/20 05:11:00;;;;;;;1.00;0.90;;;21.30;57.70;;;;;;5138030;27;20159;-84
2023/07/20 05:13:26;;;;;;;1.25;1.05;;;21.30;57.60;;;;;;5137264;27;20150;-85
2023/07/20 05:15:52;;;;;;;1.00;0.95;;;21.30;57.80;;;;;;5137780;27;20569;-85
2023/07/20 05:18:20;;;;;;;0.80;0.80;;;21.30;57.90;;;;;;5138142;27;20177;-85
2023/07/20 05:20:47;;;;;;;1.05;0.82;;;21.30;57.60;;;;;;5138079;27;20166;-85
2023/07/20 05:23:14;;;;;;;1.20;1.10;;;21.30;57.60;;;;;;5120567;27;20210;-84
2023/07/20 05:25:40;;;;;;;0.95;0.88;;;21.30;57.70;;;;;;5156413;27;20155;-83
2023/07/20 05:28:06;;;;;;;0.98;0.88;;;21.30;57.80;;;;;;5120390;27;20594;-82
2023/07/20 05:30:32;;;;;;;1.73;1.00;;;21.30;57.70;;;;;;5137854;27;20648;-83
2023/07/20 05:32:58;;;;;;;1.88;1.02;;;21.30;57.70;;;;;;5137774;27;20279;-84
2023/07/20 05:35:26;;;;;;;1.08;0.98;;;21.40;57.60;;;;;;5137287;27;20194;-83
2023/07/20 05:37:52;;;;;;;1.55;0.90;;;21.40;57.50;;;;;;5120294;27;20233;-86
2023/07/20 05:40:18;;;;;;;0.77;0.77;;;21.30;57.60;;;;;;5137395;27;20693;-84
2023/07/20 05:42:46;;;;;;;1.55;0.75;;;21.30;58.00;;;;;;5137475;27;20170;-85
2023/07/20 05:45:12;;;;;;;1.48;1.00;;;21.20;58.40;;;;;;5137826;27;20151;-85
2023/07/20 05:47:38;;;;;;;1.23;0.95;;;21.10;58.60;;;;;;5120807;27;20159;-84
2023/07/20 05:50:05;;;;;;;1.15;1.00;;;21.10;58.80;;;;;;5155985;27;20692;-84
2023/07/20 05:52:31;;;;;;;1.25;0.95;;;21.00;59.00;;;;;;5136943;27;20700;-82
2023/07/20 05:54:57;;;;;;;0.93;0.82;;;21.00;59.20;;;;;;5137008;27;20189;-85
2023/07/20 05:57:23;;;;;;;1.00;0.90;;;21.00;59.20;;;;;;5155562;27;20147;-86
2023/07/20 05:59:49;;;;;;;0.82;0.80;;;21.00;59.20;;;;;;5155559;27;20171;-83
2023/07/20 06:02:15;;;;;;;0.80;0.77;;;20.90;59.30;;;;;;5155406;27;20230;-85
2023/07/20 06:04:41;;;;;;;1.13;1.02;;;21.00;59.50;;;;;;5120443;27;20182;-83
2023/07/20 06:07:08;;;;;;;1.08;0.98;;;20.90;59.80;;;;;;5136848;27;20159;-84
2023/07/20 06:09:34;;;;;;;1.00;0.98;;;21.00;59.70;;;;;;5155430;27;20642;-83
2023/07/20 06:12:00;;;;;;;1.00;1.00;;;21.00;59.50;;;;;;5136903;27;20171;-86
2023/07/20 06:14:26;;;;;;;0.90;0.90;;;21.00;59.50;;;;;;5137197;27;20267;-82
2023/07/20 06:16:52;;;;;;;1.20;1.10;;;21.00;59.50;;;;;;5136936;27;20513;-84
2023/07/20 06:19:18;;;;;;;1.25;0.93;;;21.00;59.60;;;;;;5136729;27;20657;-83
2023/07/20 06:21:44;;;;;;;1.38;1.00;;;21.10;59.60;;;;;;5136627;27;20211;-81
2023/07/20 06:24:10;;;;;;;1.20;1.10;;;21.10;59.60;;;;;;5154875;27;20163;-85
2023/07/20 06:26:38;;;;;;;1.30;0.90;;;21.00;59.60;;;;;;5136397;27;20246;-83
2023/07/20 06:29:06;;;;;;;1.45;1.15;;;21.10;59.60;;;;;;5119910;27;20215;-83
2023/07/20 06:31:33;;;;;;;1.23;1.10;;;21.10;59.90;;;;;;5136402;27;20166;-85
2023/07/20 06:33:59;;;;;;;1.77;1.10;;;21.00;59.90;;;;;;5136883;27;20239;-86
2023/07/20 06:36:26;;;;;;;0.88;0.88;;;21.00;60.00;;;;;;5119917;27;20194;-84
2023/07/20 06:38:52;;;;;;;1.40;1.20;;;21.10;59.90;;;;;;5155054;27;20147;-86
2023/07/20 06:41:19;;;;;;;1.38;1.20;;;21.00;60.10;;;;;;5119583;27;20166;-84
2023/07/20 06:43:45;;;;;;;1.42;1.20;;;21.00;60.20;;;;;;5155173;27;20158;-85
2023/07/20 06:46:11;;;;;;;1.58;1.15;;;21.00;60.30;;;;;;5119141;27;20162;-83
2023/07/20 06:48:37;;;;;;;1.88;1.13;;;21.00;60.50;;;;;;5120011;27;20163;-83
2023/07/20 06:51:02;;;;;;;2.20;1.40;;;21.10;60.40;;;;;;5132672;28;20309;-85
2023/07/20 06:53:29;;;;;;;2.38;1.40;;;21.10;60.20;;;;;;5115914;28;20163;-86
2023/07/20 06:55:57;;;;;;;2.53;1.20;;;21.20;60.80;;;;;;5133127;28;20187;-83
2023/07/20 06:58:23;;;;;;;2.95;1.30;;;21.10;61.00;;;;;;5132802;28;20152;-83
2023/07/20 07:00:50;;;;;;;1.30;1.05;;;21.00;61.40;;;;;;5132937;28;20167;-88
2023/07/20 07:03:16;;;;;;;1.23;1.13;;;21.00;61.60;;;;;;5133193;28;20167;-86
2023/07/20 07:05:42;;;;;;;1.60;1.30;;;21.00;61.60;;;;;;5132883;28;20165;-83
2023/07/20 07:08:08;;;;;;;1.73;1.15;;;21.00;61.60;;;;;;5115914;28;20195;-85
2023/07/20 07:10:36;;;;;;;2.00;1.30;;;21.00;61.30;;;;;;5132901;28;20190;-86
2023/07/20 07:13:02;;;;;;;1.45;1.02;;;21.20;61.40;;;;;;5134253;28;20658;-84
2023/07/20 07:15:28;;;;;;;1.40;1.20;;;21.10;61.40;;;;;;5133999;28;20671;-85
2023/07/20 07:17:54;;;;;;;1.48;1.30;;;21.10;61.40;;;;;;5132643;28;20167;-84
2023/07/20 07:20:20;;;;;;;1.42;1.33;;;21.10;61.50;;;;;;5133951;28;20234;-86
2023/07/20 07:22:46;;;;;;;1.30;1.20;;;21.10;61.80;;;;;;5133313;28;20152;-85
2023/07/20 07:25:12;;;;;;;1.40;1.30;;;21.10;62.00;;;;;;5132729;28;20164;-87
2023/07/20 07:27:38;;;;;;;2.20;1.27;;;21.00;62.10;;;;;;5133859;28;20156;-83
2023/07/20 07:30:05;;;;;;;0.90;0.88;;;21.00;62.30;;;;;;5132664;28;20220;-83
2023/07/20 07:32:31;;;;;;;1.40;1.20;;;21.00;62.00;;;;;;5132665;28;20163;-85
2023/07/20 07:34:58;;;;;;;1.70;1.50;;;21.00;61.80;;;;;;5133749;27;20195;-87
2023/07/20 07:37:24;;;;;;;1.60;1.38;;;21.00;61.90;;;;;;5136282;27;20190;-85
2023/07/20 07:39:50;;;;;;;1.30;1.20;;;21.10;62.00;;;;;;5137641;27;20609;-84
2023/07/20 07:42:16;;;;;;;1.50;1.40;;;21.10;61.80;;;;;;5119071;27;20610;-82
2023/07/20 07:44:42;;;;;;;1.30;1.20;;;21.20;61.80;;;;;;5136253;27;20197;-86
2023/07/20 07:47:08;;;;;;;1.38;1.27;;;21.20;61.70;;;;;;5137415;27;20159;-84
2023/07/20 07:49:34;;;;;;;1.60;1.20;;;21.20;61.60;;;;;;5137308;27;20154;-83
2023/07/20 07:52:02;;;;;;;1.38;1.10;;;21.10;61.90;;;;;;5151101;27;20222;-82
2023/07/20 07:54:28;;;;;;;1.92;1.30;;;21.10;61.90;;;;;;5139436;27;20278;-85
2023/07/20 07:56:55;;;;;;;1.40;1.30;;;21.20;61.80;;;;;;5139538;27;20191;-83
2023/07/20 07:59:20;;;;;;;1.55;1.20;;;21.20;61.60;;;;;;5139470;27;20151;-85
2023/07/20 08:01:46;;;;;;;1.90;1.40;;;21.20;62.00;;;;;;5158265;27;20193;-84
2023/07/20 08:04:13;;;;;;;1.50;1.30;;;21.20;61.90;;;;;;5139254;27;20187;-85
2023/07/20 08:06:39;;;;;;;1.42;1.30;;;21.20;62.10;;;;;;5158266;27;20177;-85
2023/07/20 08:09:05;;;;;;;1.27;1.17;;;21.10;62.40;;;;;;5122315;27;20299;-83
2023/07/20 08:11:33;;;;;;;2.05;1.20;;;21.10;62.30;;;;;;5157711;27;20210;-83
2023/07/20 08:14:00;;;;;;;1.30;1.17;;;21.10;62.50;;;;;;5139222;27;20226;-85
2023/07/20 08:16:26;;;;;;;1.40;1.30;;;21.00;62.50;;;;;;5139931;27;20143;-87
2023/07/20 08:18:52;;;;;;;1.55;1.45;;;21.00;62.70;;;;;;5124454;27;20239;-86
2023/07/20 08:21:18;;;;;;;1.80;1.50;;;21.10;62.40;;;;;;5123515;27;20201;-86
2023/07/20 08:23:44;;;;;;;1.20;1.10;;;21.10;62.20;;;;;;5125269;27;20163;-86
2023/07/20 08:26:10;;;;;;;1.60;1.35;;;21.10;62.20;;;;;;5160128;27;20158;-82
2023/07/20 08:28:42;;;;;;;1.52;1.35;;;21.10;62.10;;;;;;5159606;27;20170;-84
2023/07/20 08:31:07;;;;;;;1.20;1.10;;;21.10;62.10;;;;;;5090838;27;20183;-84
2023/07/20 08:33:34;;;;;;;2.08;1.27;;;21.20;61.90;;;;;;5142015;27;20158;-82
2023/07/20 08:36:01;;;;;;;1.55;1.15;;;21.20;62.00;;;;;;5123728;27;20179;-84
2023/07/20 08:38:27;;;;;;;1.70;1.30;;;21.10;62.00;;;;;;5159325;27;20146;-84
2023/07/20 08:40:54;;;;;;;1.08;1.02;;;21.30;61.70;;;;;;5139953;27;20193;-85
2023/07/20 08:43:20;;;;;;;1.50;1.23;;;21.20;61.70;;;;;;5121742;27;20197;-83
2023/07/20 08:45:46;;;;;;;1.45;1.30;;;21.20;61.60;;;;;;5138641;27;20159;-84
2023/07/20 08:48:12;;;;;;;1.77;1.35;;;21.20;61.80;;;;;;5138607;27;20150;-83
2023/07/20 08:50:38;;;;;;;1.23;1.13;;;21.20;61.80;;;;;;5139868;27;20551;-82
2023/07/20 08:53:04;;;;;;;1.50;1.40;;;21.10;61.80;;;;;;5139952;27;20242;-81
2023/07/20 08:55:31;;;;;;;1.85;1.60;;;21.20;61.90;;;;;;5151995;27;20188;-82
2023/07/20 08:57:58;;;;;;;1.77;1.30;;;21.00;62.00;;;;;;5118248;27;20148;-86
2023/07/20 09:00:25;;;;;;;1.67;1.50;;;21.10;62.00;;;;;;5101438;27;20175;-85
2023/07/20 09:02:52;;;;;;;1.63;1.38;;;21.10;61.90;;;;;;5137450;27;20179;-85
2023/07/20 09:05:19;;;;;;;1.17;1.08;;;21.10;61.90;;;;;;5118777;27;20529;-83
2023/07/20 09:07:44;;;;;;;1.55;1.45;;;21.10;61.80;;;;;;5118693;27;20167;-82
2023/07/20 09:10:11;;;;;;;1.48;1.30;;;21.20;61.90;;;;;;5137173;27;20688;-83
2023/07/20 09:12:43;;;;;;;1.80;1.58;;;21.10;61.60;;;;;;5118921;27;20309;-84
2023/07/20 09:15:10;;;;;;;1.45;1.35;;;21.30;61.40;;;;;;5050947;27;20733;-83
2023/07/20 09:17:37;;;;;;;3.15;1.55;;;21.20;61.30;;;;;;5118429;27;20144;-83
2023/07/20 09:20:08;;;;;;;1.52;1.30;;;21.30;61.30;;;;;;5136137;27;20159;-83
2023/07/20 09:22:39;;;;;;;2.17;1.40;;;21.20;61.20;;;;;;5118023;27;20148;-85
2023/07/20 09:25:14;;;;;;;1.48;1.35;;;21.30;61.00;;;;;;5066855;27;20198;-81
2023/07/20 09:27:42;;;;;;;2.45;1.40;;;21.30;60.90;;;;;;5117826;27;20219;-85
2023/07/20 09:30:09;;;;;;;2.40;1.58;;;21.30;60.80;;;;;;5117379;27;20179;-86
2023/07/20 09:32:51;;;;;;;3.72;1.40;;;21.30;60.80;;;;;;5117322;27;20191;-88
2023/07/20 09:35:18;;;;;;;1.40;1.30;;;21.20;60.80;;;;;;5099935;27;20202;-85
2023/07/20 09:37:52;;;;;;;5.57;1.30;;;21.30;60.90;;;;;;5100924;27;20242;-86
2023/07/20 09:40:18;;;;;;;2.30;1.40;;;21.30;61.00;;;;;;5117399;27;20174;-84
2023/07/20 09:42:44;;;;;;;1.92;1.30;;;21.20;61.20;;;;;;5135412;27;20694;-83
2023/07/20 09:45:11;;;;;;;3.63;1.55;;;21.20;61.40;;;;;;5136086;27;20470;-86
2023/07/20 09:47:38;;;;;;;2.03;1.50;;;21.10;61.60;;;;;;5100252;27;20171;-82
2023/07/20 09:50:04;;;;;;;1.92;1.30;;;21.10;61.40;;;;;;5116969;27;20152;-84
2023/07/20 09:52:31;;;;;;;1.45;1.27;;;21.10;61.50;;;;;;5096191;28;20678;-84
2023/07/20 09:54:57;;;;;;;2.67;1.50;;;21.20;61.40;;;;;;5096253;28;20196;-84
2023/07/20 09:57:23;;;;;;;1.40;1.30;;;21.10;61.50;;;;;;5113196;28;20192;-85
2023/07/20 09:59:48;;;;;;;1.67;1.50;;;21.10;61.60;;;;;;5112809;28;20184;-86
2023/07/20 10:02:21;;;;;;;2.92;1.48;;;21.10;61.40;;;;;;5112925;28;20167;-82
2023/07/20 10:04:49;;;;;;;1.55;1.38;;;21.20;61.20;;;;;;5114419;28;20152;-85
2023/07/20 10:07:14;;;;;;;1.80;1.20;;;21.20;61.00;;;;;;5113588;28;20194;-83
2023/07/20 10:09:40;;;;;;;1.73;1.48;;;21.20;61.00;;;;;;5113129;28;20153;-83
2023/07/20 10:12:07;;;;;;;1.50;1.30;;;21.20;61.10;;;;;;5113083;28;20514;-85
2023/07/20 10:14:34;;;;;;;1.50;1.40;;;21.20;61.40;;;;;;5112889;28;20302;-86
2023/07/20 10:17:00;;;;;;;1.20;1.10;;;21.10;61.60;;;;;;5114079;28;20152;-84
2023/07/20 10:19:33;;;;;;;1.52;1.33;;;21.10;62.10;;;;;;5113041;28;20162;-81
2023/07/20 10:22:03;;;;;;;1.73;1.40;;;21.00;62.40;;;;;;5113076;28;20167;-81
2023/07/20 10:24:29;;;;;;;1.48;1.38;;;21.00;62.50;;;;;;5095689;28;20206;-82
2023/07/20 10:26:56;;;;;;;1.30;1.10;;;21.10;62.70;;;;;;5113831;28;20550;-85
2023/07/20 10:29:22;;;;;;;1.25;1.15;;;21.10;62.50;;;;;;5096181;28;20255;-84
2023/07/20 10:31:48;;;;;;;2.13;1.20;;;21.20;62.30;;;;;;5112526;28;20679;-86
2023/07/20 10:34:15;;;;;;;3.17;1.52;;;21.10;62.00;;;;;;5113689;28;20195;-85
2023/07/20 10:36:46;;;;;;;1.63;1.50;;;21.00;62.30;;;;;;5113741;28;20187;-84
2023/07/20 10:39:24;;;;;;;1.40;1.30;;;21.00;62.20;;;;;;5096148;28;20168;-84
2023/07/20 10:41:49;;;;;;;2.05;1.45;;;21.10;62.20;;;;;;5112945;28;20162;-85
2023/07/20 10:44:19;;;;;;;1.33;1.23;;;21.00;62.00;;;;;;5113030;28;20172;-86
2023/07/20 10:46:46;;;;;;;1.60;1.17;;;21.10;61.90;;;;;;5113649;28;20164;-83
2023/07/20 10:49:12;;;;;;;1.45;1.35;;;21.10;61.70;;;;;;5095530;28;20175;-83
2023/07/20 10:51:40;;;;;;;2.47;1.65;;;21.10;61.70;;;;;;5095572;28;20223;-83
2023/07/20 10:54:28;;;;;;;1.67;1.40;;;21.10;61.30;;;;;;5095273;28;20192;-85
2023/07/20 10:56:55;;;;;;;2.17;1.38;;;21.10;61.30;;;;;;5113449;28;20164;-87
2023/07/20 10:59:38;;;;;;;1.75;1.27;;;21.20;60.80;;;;;;5095558;28;20160;-87
2023/07/20 11:02:08;;;;;;;1.45;1.33;;;21.20;60.20;;;;;;5112412;28;20156;-85
2023/07/20 11:04:42;;;;;;;1.30;1.20;;;21.20;60.30;;;;;;5112252;28;20156;-83
2023/07/20 11:07:08;;;;;;;1.60;1.50;;;21.20;60.10;;;;;;5113567;28;20148;-84
2023/07/20 11:09:35;;;;;;;1.88;1.38;;;21.20;60.10;;;;;;5112436;28;20676;-85
2023/07/20 11:12:13;;;;;;;1.55;1.45;;;21.10;60.10;;;;;;5115177;28;20148;-85
2023/07/20 11:14:42;;;;;;;4.45;1.70;;;21.10;60.10;;;;;;5117364;28;20190;-86
2023/07/20 11:17:13;;;;;;;3.25;1.38;;;21.10;59.90;;;;;;5116309;28;20148;-83
2023/07/20 11:19:40;;;;;;;2.63;1.30;;;21.10;59.70;;;;;;5116452;28;20247;-82
2023/07/20 11:22:07;;;;;;;3.28;1.75;;;21.20;59.60;;;;;;5117382;28;20190;-86
2023/07/20 11:24:33;;;;;;;2.33;1.50;;;21.20;59.70;;;;;;5116501;28;20148;-86
2023/07/20 11:27:01;;;;;;;1.65;1.38;;;21.20;60.20;;;;;;5117463;28;20156;-85
2023/07/20 11:29:27;;;;;;;2.35;1.73;;;21.20;59.80;;;;;;5117222;28;20155;-85
2023/07/20 11:31:53;;;;;;;1.83;1.30;;;21.20;59.80;;;;;;5116062;28;20153;-87
2023/07/20 11:34:20;;;;;;;2.10;1.40;;;21.20;59.80;;;;;;5098787;28;20650;-84
2023/07/20 11:36:48;;;;;;;2.08;1.55;;;21.20;59.90;;;;;;5099372;28;20626;-88
2023/07/20 11:39:19;;;;;;;2.03;1.20;;;21.20;60.10;;;;;;5099563;28;20536;-85
2023/07/20 11:41:51;;;;;;;1.27;1.17;;;21.20;59.80;;;;;;5081284;28;20214;-85
2023/07/20 11:44:18;;;;;;;2.25;1.40;;;21.20;59.40;;;;;;5081431;28;20180;-84
2023/07/20 11:46:44;;;;;;;1.35;1.25;;;21.30;59.50;;;;;;5117115;28;20159;-86
2023/07/20 11:49:10;;;;;;;1.10;1.02;;;21.30;59.20;;;;;;5117087;28;20163;-83
2023/07/20 11:51:37;;;;;;;1.75;1.30;;;21.30;59.50;;;;;;5115687;28;20265;-88
2023/07/20 11:54:03;;;;;;;3.42;1.60;;;21.20;59.20;;;;;;5099125;28;20164;-88
2023/07/20 11:56:30;;;;;;;1.38;1.15;;;21.20;59.80;;;;;;5116769;28;20198;-85
2023/07/20 11:58:59;;;;;;;1.80;1.20;;;21.30;59.60;;;;;;5115453;28;20168;-87
2023/07/20 12:01:28;;;;;;;3.00;1.25;;;21.30;59.50;;;;;;5115705;28;20164;-87
2023/07/20 12:03:55;;;;;;;2.22;1.40;;;21.30;59.40;;;;;;5115381;28;20283;-86
2023/07/20 12:06:25;;;;;;;1.30;1.20;;;21.30;59.30;;;;;;5116762;28;20243;-86
2023/07/20 12:08:54;;;;;;;1.38;1.27;;;21.30;59.40;;;;;;5115261;28;20167;-87
2023/07/20 12:11:33;;;;;;;1.35;1.25;;;21.30;59.10;;;;;;5115323;28;20163;-83
2023/07/20 12:13:59;;;;;;;1.77;1.30;;;21.40;59.10;;;;;;5116475;28;20251;-85
2023/07/20 12:16:30;;;;;;;2.03;1.48;;;21.30;59.00;;;;;;5098027;28;20294;-84
2023/07/20 12:19:15;;;;;;;1.92;1.55;;;21.40;59.00;;;;;;5080819;28;20282;-85
2023/07/20 12:21:43;;;;;;;4.15;1.55;;;21.40;59.40;;;;;;5064068;28;20214;-87
2023/07/20 12:24:13;;;;;;;1.92;1.30;;;21.30;59.50;;;;;;5098250;28;20203;-87
2023/07/20 12:26:43;;;;;;;2.13;1.30;;;21.30;59.20;;;;;;5080518;28;20187;-86
2023/07/20 12:29:09;;;;;;;1.88;1.52;;;21.40;59.40;;;;;;5097358;28;20301;-87
2023/07/20 12:31:36;;;;;;;1.65;1.40;;;21.40;59.50;;;;;;5115901;28;20239;-85
2023/07/20 12:34:03;;;;;;;1.15;1.02;;;21.40;59.00;;;;;;5115958;28;20157;-84
2023/07/20 12:36:30;;;;;;;1.50;1.35;;;21.40;58.60;;;;;;5116076;28;20156;-84
2023/07/20 12:38:58;;;;;;;1.30;1.20;;;21.40;59.40;;;;;;5115737;28;20148;-82
2023/07/20 12:41:24;;;;;;;1.58;1.23;;;21.50;58.80;;;;;;5114511;28;20194;-88
2023/07/20 12:43:50;;;;;;;2.22;1.20;;;21.50;58.70;;;;;;5114913;28;20508;-84
2023/07/20 12:46:16;;;;;;;1.65;1.55;;;21.50;58.80;;;;;;5115904;28;20471;-85
2023/07/20 12:48:42;;;;;;;1.70;1.30;;;21.50;59.00;;;;;;5098005;28;20172;-85